createdAt,value
2023-09-07T00:00:28.652Z,19.80
2023-09-07T00:02:59.176Z,19.80
2023-09-07T00:05:26.626Z,19.70
2023-09-07T00:07:58.140Z,19.70
2023-09-07T00:17:37.042Z,19.60
2023-09-07T00:20:31.748Z,19.50
2023-09-07T00:23:06.680Z,19.50
2023-09-07T00:25:37.169Z,19.50
2023-09-07T00:28:07.843Z,19.50
2023-09-07T00:30:41.660Z,19.40
2023-09-07T00:33:12.241Z,19.40
2023-09-07T00:36:21.006Z,19.40
2023-09-07T00:39:08.176Z,19.30
2023-09-07T00:41:45.811Z,19.30
2023-09-07T00:44:30.017Z,19.20
2023-09-07T00:47:08.905Z,19.20
2023-09-07T00:49:48.574Z,19.20
2023-09-07T00:52:16.025Z,19.20
2023-09-07T00:54:51.126Z,19.10
2023-09-07T00:57:37.344Z,19.10
2023-09-07T01:00:09.222Z,19.10
2023-09-07T01:02:57.969Z,19.10
2023-09-07T01:06:06.922Z,19.00
2023-09-07T01:08:56.306Z,19.00
2023-09-07T01:11:31.276Z,19.00
2023-09-07T01:14:00.289Z,18.90
2023-09-07T01:19:12.418Z,18.90
2023-09-07T01:21:42.129Z,18.90
2023-09-07T01:24:24.362Z,18.90
2023-09-07T01:26:55.443Z,18.90
2023-09-07T01:29:32.872Z,19.00
2023-09-07T01:32:09.554Z,19.00
2023-09-07T01:34:42.146Z,19.00
2023-09-07T01:37:12.492Z,19.00
2023-09-07T01:39:50.405Z,19.00
2023-09-07T01:42:23.292Z,19.00
2023-09-07T01:45:02.798Z,18.90
2023-09-07T01:47:37.049Z,18.90
2023-09-07T01:50:07.755Z,18.80
2023-09-07T01:52:36.541Z,18.80
2023-09-07T01:55:08.827Z,18.80
2023-09-07T01:57:48.196Z,18.80
2023-09-07T02:00:15.711Z,18.80
2023-09-07T02:02:43.086Z,18.70
2023-09-07T02:05:48.702Z,18.70
2023-09-07T02:08:18.758Z,18.70
2023-09-07T02:10:59.575Z,18.60
2023-09-07T02:13:26.876Z,18.60
2023-09-07T02:15:54.054Z,18.60
2023-09-07T02:18:21.334Z,18.60
2023-09-07T02:20:51.062Z,18.60
2023-09-07T02:23:21.614Z,18.60
2023-09-07T02:25:48.958Z,18.50
2023-09-07T02:28:16.366Z,18.50
2023-09-07T02:30:43.714Z,18.50
2023-09-07T02:33:11.190Z,18.50
2023-09-07T02:35:38.957Z,18.50
2023-09-07T02:38:06.825Z,18.50
2023-09-07T02:40:42.449Z,18.40
2023-09-07T02:43:10.126Z,18.50
2023-09-07T02:45:37.887Z,18.40
2023-09-07T02:48:07.263Z,18.40
2023-09-07T02:50:41.600Z,18.40
2023-09-07T02:53:08.881Z,18.30
2023-09-07T02:55:41.150Z,18.30
2023-09-07T02:58:08.688Z,18.30
2023-09-07T03:00:46.269Z,18.30
2023-09-07T03:03:15.760Z,18.30
2023-09-07T03:05:47.617Z,18.20
2023-09-07T03:08:15.701Z,18.20
2023-09-07T03:10:44.453Z,18.20
2023-09-07T03:13:17.883Z,18.20
2023-09-07T03:15:46.935Z,18.20
2023-09-07T03:18:20.072Z,18.20
2023-09-07T03:20:53.489Z,18.10
2023-09-07T03:23:31.667Z,18.10
2023-09-07T03:26:10.446Z,18.10
2023-09-07T03:28:50.156Z,18.10
2023-09-07T03:31:25.117Z,18.10
2023-09-07T03:33:59.807Z,18.10
2023-09-07T03:36:28.420Z,18.10
2023-09-07T03:38:55.837Z,18.10
2023-09-07T03:41:28.092Z,18.10
2023-09-07T03:43:57.231Z,18.10
2023-09-07T03:46:31.220Z,18.10
2023-09-07T03:49:09.359Z,18.20
2023-09-07T03:51:42.322Z,18.20
2023-09-07T03:54:09.659Z,18.20
2023-09-07T03:56:36.860Z,18.20
2023-09-07T03:59:15.405Z,18.20
2023-09-07T04:01:47.697Z,18.20
2023-09-07T04:04:15.249Z,18.20
2023-09-07T04:06:42.918Z,18.20
2023-09-07T04:09:20.345Z,18.20
2023-09-07T04:11:56.763Z,18.20
2023-09-07T04:14:31.725Z,18.20
2023-09-07T04:16:59.463Z,18.20
2023-09-07T04:19:26.728Z,18.10
2023-09-07T04:21:57.179Z,18.10
2023-09-07T04:24:28.780Z,18.10
2023-09-07T04:27:02.930Z,18.10
2023-09-07T04:29:33.702Z,18.00
2023-09-07T04:32:08.958Z,18.00
2023-09-07T04:34:36.477Z,18.00
2023-09-07T04:37:03.847Z,17.90
2023-09-07T04:39:31.247Z,18.00
2023-09-07T04:41:58.572Z,17.90
2023-09-07T04:44:46.233Z,17.90
2023-09-07T04:47:24.690Z,18.00
2023-09-07T04:50:06.149Z,17.90
2023-09-07T04:52:37.575Z,17.90
2023-09-07T04:55:08.631Z,17.90
2023-09-07T04:57:40.008Z,17.90
2023-09-07T05:00:12.693Z,17.90
2023-09-07T05:10:39.345Z,17.90
2023-09-07T05:13:06.883Z,17.90
2023-09-07T05:15:34.190Z,17.90
2023-09-07T05:18:01.647Z,17.90
2023-09-07T05:20:31.790Z,18.00
2023-09-07T05:23:00.358Z,18.00
2023-09-07T05:25:27.603Z,18.00
2023-09-07T05:27:56.880Z,18.00
2023-09-07T05:30:24.299Z,18.00
2023-09-07T05:32:51.882Z,18.00
2023-09-07T05:35:28.686Z,18.10
2023-09-07T05:38:00.208Z,18.10
2023-09-07T05:40:28.695Z,18.10
2023-09-07T05:42:55.983Z,18.10
2023-09-07T05:45:23.188Z,18.10
2023-09-07T05:47:50.415Z,18.20
2023-09-07T05:50:20.466Z,18.20
2023-09-07T05:52:49.877Z,18.30
2023-09-07T05:55:17.250Z,18.30
2023-09-07T05:57:44.620Z,18.30
2023-09-07T06:00:12.366Z,18.30
2023-09-07T06:02:44.433Z,18.40
2023-09-07T06:05:13.114Z,18.50
2023-09-07T06:07:40.383Z,18.60
2023-09-07T06:10:11.274Z,18.70
2023-09-07T06:12:39.010Z,18.80
2023-09-07T06:15:07.097Z,18.80
2023-09-07T06:17:34.389Z,18.90
2023-09-07T06:20:02.854Z,19.00
2023-09-07T06:22:32.678Z,19.10
2023-09-07T06:24:59.926Z,19.20
2023-09-07T06:27:27.348Z,19.30
2023-09-07T06:29:54.613Z,19.40
2023-09-07T06:32:22.024Z,19.50
2023-09-07T06:34:59.190Z,19.60
2023-09-07T06:37:54.513Z,19.70
2023-09-07T06:41:25.514Z,19.80
2023-09-07T06:44:09.444Z,19.90
2023-09-07T06:46:36.810Z,20.00
2023-09-07T06:49:14.415Z,20.00
2023-09-07T06:55:44.443Z,20.20
2023-09-07T06:58:38.660Z,20.30
2023-09-07T07:01:28.858Z,20.40
2023-09-07T07:05:13.973Z,20.40
2023-09-07T07:07:45.306Z,20.50
2023-09-07T07:10:32.433Z,20.50
2023-09-07T07:12:59.741Z,20.60
2023-09-07T07:15:27.339Z,20.70
2023-09-07T07:17:54.469Z,20.70
2023-09-07T07:20:22.109Z,20.80
2023-09-07T07:22:49.470Z,20.90
2023-09-07T07:28:08.824Z,21.00
2023-09-07T07:30:46.863Z,21.10
2023-09-07T07:33:14.287Z,21.20
2023-09-07T07:35:41.693Z,21.20
2023-09-07T07:38:14.379Z,21.30
2023-09-07T07:40:44.044Z,21.40
2023-09-07T07:46:21.968Z,21.50
2023-09-07T07:48:49.341Z,21.60
2023-09-07T07:51:16.937Z,21.70
2023-09-07T07:53:45.329Z,21.70
2023-09-07T07:56:22.288Z,21.80
2023-09-07T07:58:53.525Z,21.90
2023-09-07T08:01:30.891Z,22.00
2023-09-07T08:04:03.872Z,22.10
2023-09-07T08:06:32.618Z,22.10
2023-09-07T08:09:00.085Z,22.20
2023-09-07T08:11:28.328Z,22.30
2023-09-07T08:13:55.934Z,22.40
2023-09-07T08:16:23.554Z,22.50
2023-09-07T08:18:51.943Z,22.50
2023-09-07T08:21:19.428Z,22.60
2023-09-07T08:23:47.146Z,22.70
2023-09-07T08:26:19.187Z,22.70
2023-09-07T08:28:49.933Z,22.80
2023-09-07T08:31:41.032Z,22.80
2023-09-07T08:34:25.277Z,22.90
2023-09-07T08:37:06.361Z,22.90
2023-09-07T08:39:42.671Z,23.00
2023-09-07T08:55:08.122Z,23.30
2023-09-07T08:57:50.906Z,23.30
2023-09-07T09:00:21.362Z,23.40
2023-09-07T09:13:38.297Z,23.70
2023-09-07T09:16:57.798Z,23.80
2023-09-07T09:19:38.392Z,23.90
2023-09-07T09:22:28.895Z,24.00
2023-09-07T09:25:05.877Z,24.10
2023-09-07T09:27:42.201Z,24.10
2023-09-07T09:30:09.852Z,24.20
2023-09-07T09:32:37.002Z,24.20
2023-09-07T09:35:07.440Z,24.30
2023-09-07T09:37:50.666Z,24.40
2023-09-07T09:40:20.468Z,24.60
2023-09-07T09:43:02.805Z,24.60
2023-09-07T09:45:32.088Z,24.70
2023-09-07T09:48:15.974Z,24.80
2023-09-07T09:50:47.878Z,24.90
2023-09-07T09:53:19.689Z,25.00
2023-09-07T09:55:47.920Z,25.00
2023-09-07T10:01:56.985Z,25.20
2023-09-07T10:04:35.038Z,25.20
2023-09-07T10:07:10.828Z,25.40
2023-09-07T10:10:00.342Z,25.60
2023-09-07T10:12:29.359Z,26.00
2023-09-07T10:14:59.717Z,26.40
2023-09-07T10:17:27.183Z,26.70
2023-09-07T10:20:07.534Z,27.00
2023-09-07T10:22:37.739Z,27.30
2023-09-07T10:25:18.628Z,27.50
2023-09-07T10:28:24.749Z,27.80
2023-09-07T10:31:53.405Z,28.20
2023-09-07T10:35:06.122Z,28.40
2023-09-07T10:37:36.198Z,28.50
2023-09-07T10:40:05.449Z,28.50
2023-09-07T10:42:38.595Z,28.40
2023-09-07T10:45:14.848Z,28.20
2023-09-07T10:49:45.047Z,27.90
2023-09-07T10:56:49.185Z,27.50
2023-09-07T10:59:41.099Z,27.30
2023-09-07T11:11:39.199Z,27.10
2023-09-07T11:14:11.876Z,26.90
2023-09-07T11:25:12.884Z,27.30
2023-09-07T11:25:28.830Z,26.90
2023-09-07T11:27:45.758Z,28.10
2023-09-07T11:31:00.359Z,28.40
2023-09-07T11:35:00.641Z,28.30
2023-09-07T11:37:47.970Z,28.10
2023-09-07T11:45:18.106Z,27.50
2023-09-07T11:47:48.101Z,27.30
2023-09-07T11:50:26.026Z,27.20
2023-09-07T11:52:56.273Z,27.20
2023-09-07T11:55:32.503Z,27.10
2023-09-07T11:58:00.025Z,27.10
2023-09-07T12:00:27.492Z,27.10
2023-09-07T12:02:55.075Z,27.10
2023-09-07T12:05:22.691Z,27.10
2023-09-07T12:07:52.631Z,27.10
2023-09-07T12:10:24.303Z,27.10
2023-09-07T12:12:51.978Z,27.10
2023-09-07T12:15:21.735Z,27.10
2023-09-07T12:17:55.697Z,27.10
2023-09-07T12:20:35.144Z,27.10
2023-09-07T12:23:03.575Z,27.10
2023-09-07T12:25:30.780Z,27.20
2023-09-07T12:28:00.653Z,27.20
2023-09-07T12:30:55.313Z,27.20
2023-09-07T12:42:27.245Z,27.20
2023-09-07T12:44:49.748Z,27.10
2023-09-07T12:47:42.342Z,27.20
2023-09-07T12:50:12.611Z,27.20
2023-09-07T12:52:42.833Z,27.20
2023-09-07T12:55:10.177Z,27.20
2023-09-07T12:57:37.461Z,27.20
2023-09-07T13:00:08.186Z,27.20
2023-09-07T13:02:35.584Z,27.20
2023-09-07T13:05:05.874Z,27.20
2023-09-07T13:07:33.718Z,27.30
2023-09-07T13:10:05.958Z,27.30
2023-09-07T13:12:36.933Z,27.30
2023-09-07T13:15:13.209Z,27.30
2023-09-07T13:17:49.393Z,27.40
2023-09-07T13:20:21.164Z,27.30
2023-09-07T13:22:54.073Z,27.40
2023-09-07T13:25:31.574Z,27.40
2023-09-07T13:28:17.382Z,27.40
2023-09-07T13:30:52.600Z,27.50
2023-09-07T13:33:19.968Z,27.50
2023-09-07T13:35:52.456Z,27.50
2023-09-07T13:38:30.360Z,27.50
2023-09-07T13:40:57.651Z,27.50
2023-09-07T13:43:24.853Z,27.50
2023-09-07T13:45:56.074Z,27.60
2023-09-07T13:48:23.472Z,27.60
2023-09-07T13:50:53.788Z,27.60
2023-09-07T13:53:22.304Z,27.60
2023-09-07T13:55:52.759Z,27.60
2023-09-07T13:58:31.202Z,27.60
2023-09-07T14:01:01.644Z,27.60
2023-09-07T14:03:36.817Z,27.60
2023-09-07T14:10:12.866Z,27.70
2023-09-07T14:12:45.468Z,27.70
2023-09-07T14:15:18.328Z,27.80
2023-09-07T14:18:01.775Z,27.80
2023-09-07T14:21:02.858Z,27.80
2023-09-07T14:23:57.985Z,27.90
2023-09-07T14:26:25.181Z,28.00
2023-09-07T14:28:52.821Z,28.00
2023-09-07T14:31:20.323Z,28.00
2023-09-07T14:33:50.985Z,28.00
2023-09-07T14:36:18.955Z,28.00
2023-09-07T14:38:49.225Z,28.00
2023-09-07T14:41:22.232Z,28.10
2023-09-07T14:48:46.008Z,28.10
2023-09-07T14:51:33.539Z,28.10
2023-09-07T14:54:04.133Z,28.00
2023-09-07T14:58:06.225Z,28.00
2023-09-07T15:01:38.663Z,28.10
2023-09-07T15:04:35.093Z,28.10
2023-09-07T15:07:44.334Z,28.10
2023-09-07T15:11:45.429Z,28.10
2023-09-07T15:14:58.470Z,28.10
2023-09-07T15:18:14.547Z,28.10
2023-09-07T15:21:29.275Z,28.10
2023-09-07T15:24:27.746Z,28.10
2023-09-07T15:32:01.327Z,28.20
2023-09-07T15:39:00.663Z,28.10
2023-09-07T15:42:07.533Z,28.00
2023-09-07T15:45:06.233Z,28.10
2023-09-07T15:47:58.605Z,28.10
2023-09-07T15:50:56.259Z,28.10
2023-09-07T15:53:45.193Z,28.20
2023-09-07T16:01:27.486Z,30.70
2023-09-07T16:14:47.357Z,37.00
2023-09-07T16:18:31.137Z,37.60
2023-09-07T16:21:26.222Z,38.10
2023-09-07T16:28:23.401Z,38.70
2023-09-07T16:30:54.376Z,38.60
2023-09-07T16:33:35.729Z,38.10
2023-09-07T16:45:06.254Z,33.10
2023-09-07T16:47:36.464Z,31.60
2023-09-07T16:54:44.961Z,30.40
2023-09-07T16:57:14.878Z,29.70
2023-09-07T17:02:22.216Z,29.10
2023-09-07T17:04:57.228Z,28.90
2023-09-07T17:07:32.034Z,28.60
2023-09-07T17:11:38.664Z,28.40
2023-09-07T17:16:40.500Z,28.00
2023-09-07T17:19:08.666Z,27.80
2023-09-07T17:21:48.232Z,27.70
2023-09-07T17:24:18.553Z,27.60
2023-09-07T17:26:48.587Z,27.40
2023-09-07T17:29:19.333Z,27.30
2023-09-07T17:31:58.910Z,27.20
2023-09-07T17:34:26.258Z,27.10
2023-09-07T17:36:56.925Z,27.00
2023-09-07T17:39:24.288Z,26.90
2023-09-07T17:41:57.260Z,26.80
2023-09-07T17:45:10.301Z,26.70
2023-09-07T17:47:43.083Z,26.70
2023-09-07T17:58:09.113Z,26.40
2023-09-07T18:00:44.514Z,26.30
2023-09-07T18:13:56.908Z,25.80
2023-09-07T18:16:34.779Z,25.70
2023-09-07T18:20:13.335Z,25.60
2023-09-07T18:22:43.652Z,25.60
2023-09-07T18:25:18.699Z,25.50
2023-09-07T18:28:14.027Z,25.40
2023-09-07T18:30:56.026Z,25.30
2023-09-07T18:33:30.657Z,25.20
2023-09-07T18:36:04.841Z,25.20
2023-09-07T18:46:42.811Z,25.00
2023-09-07T18:49:53.882Z,24.80
2023-09-07T18:53:13.943Z,24.80
2023-09-07T18:55:54.935Z,24.70
2023-09-07T18:58:22.410Z,24.60
2023-09-07T19:00:49.547Z,24.50
2023-09-07T19:03:17.021Z,24.50
2023-09-07T19:05:44.389Z,24.50
2023-09-07T19:08:12.554Z,24.40
2023-09-07T19:10:47.271Z,24.40
2023-09-07T19:13:14.717Z,24.30
2023-09-07T19:20:05.809Z,24.20
2023-09-07T19:22:35.866Z,24.10
2023-09-07T19:25:04.404Z,24.10
2023-09-07T19:27:34.083Z,24.00
2023-09-07T19:30:02.130Z,24.00
2023-09-07T19:32:29.612Z,23.90
2023-09-07T19:34:56.869Z,23.90
2023-09-07T19:37:34.949Z,23.80
2023-09-07T19:40:02.403Z,23.90
2023-09-07T19:42:29.880Z,23.80
2023-09-07T19:45:01.563Z,23.80
2023-09-07T19:48:16.816Z,23.70
2023-09-07T19:50:48.762Z,23.70
2023-09-07T19:53:16.082Z,23.60
2023-09-07T19:55:43.391Z,23.50
2023-09-07T20:01:20.018Z,23.40
2023-09-07T20:04:28.657Z,23.30
2023-09-07T20:06:56.228Z,23.20
2023-09-07T20:09:25.823Z,23.10
2023-09-07T20:11:54.121Z,23.10
2023-09-07T20:14:21.680Z,23.10
2023-09-07T20:16:49.485Z,23.00
2023-09-07T20:19:17.206Z,23.00
2023-09-07T20:21:44.937Z,22.90
2023-09-07T20:26:56.928Z,22.70
2023-09-07T20:30:14.805Z,22.70
2023-09-07T20:32:42.697Z,22.60
2023-09-07T20:35:13.383Z,22.50
2023-09-07T20:37:43.038Z,22.40
2023-09-07T20:40:13.548Z,22.40
2023-09-07T20:42:40.816Z,22.30
2023-09-07T20:45:39.042Z,22.30
2023-09-07T20:48:06.677Z,22.30
2023-09-07T20:50:34.006Z,22.20
2023-09-07T20:53:01.195Z,22.20
2023-09-07T20:55:28.331Z,22.20
2023-09-07T20:57:55.824Z,22.20
2023-09-07T21:00:39.281Z,22.20
2023-09-07T21:03:11.458Z,22.10
2023-09-07T21:05:39.668Z,22.00
2023-09-07T21:08:07.291Z,21.90
2023-09-07T21:10:37.536Z,21.90
2023-09-07T21:13:07.642Z,21.80
2023-09-07T21:15:34.735Z,21.80
2023-09-07T21:18:01.889Z,21.70
2023-09-07T21:20:29.431Z,21.70
2023-09-07T21:22:56.853Z,21.70
2023-09-07T21:31:11.800Z,21.70
2023-09-07T22:06:17.267Z,21.10
2023-09-07T22:08:44.813Z,21.10
2023-09-07T22:11:15.056Z,21.10
2023-09-07T22:13:58.926Z,21.10
2023-09-07T22:16:36.927Z,21.10
2023-09-07T22:19:37.239Z,21.10
2023-09-07T22:25:05.820Z,21.00
2023-09-07T22:28:02.355Z,21.00
2023-09-07T22:33:14.871Z,21.00
2023-09-07T22:34:53.288Z,20.90
2023-09-07T22:37:20.554Z,20.90
2023-09-07T22:44:40.489Z,20.80
2023-09-07T22:52:06.915Z,20.70
2023-09-07T22:54:19.938Z,20.70
2023-09-07T23:01:33.567Z,20.70
2023-09-07T23:04:45.361Z,20.60
2023-09-07T23:10:36.184Z,20.60
2023-09-07T23:13:27.900Z,20.60
2023-09-07T23:17:49.562Z,20.60
2023-09-07T23:20:34.331Z,20.60
2023-09-07T23:23:09.237Z,20.50
2023-09-07T23:25:37.188Z,20.50
2023-09-07T23:28:20.011Z,20.40
2023-09-07T23:31:25.454Z,20.40
2023-09-07T23:35:14.628Z,20.40
2023-09-07T23:37:59.100Z,20.40
2023-09-07T23:43:51.395Z,20.30
2023-09-07T23:46:38.248Z,20.30
2023-09-07T23:56:23.313Z,20.20
